createdAt,value
2022-11-21T00:01:21.451Z,99852.38
2022-11-21T00:03:49.457Z,99839.81
2022-11-21T00:06:17.464Z,99843.34
2022-11-21T00:08:45.715Z,99840.00
2022-11-21T00:11:17.688Z,99845.47
2022-11-21T00:13:45.509Z,99841.22
2022-11-21T00:16:15.299Z,99841.03
2022-11-21T00:18:49.438Z,99841.94
2022-11-21T00:21:19.419Z,99836.63
2022-11-21T00:23:48.564Z,99837.31
2022-11-21T00:26:17.910Z,99841.56
2022-11-21T00:28:46.189Z,99837.88
2022-11-21T00:31:22.855Z,99825.66
2022-11-21T00:33:50.804Z,99830.06
2022-11-21T00:36:18.864Z,99798.75
2022-11-21T00:38:47.166Z,99839.09
2022-11-21T00:41:17.183Z,99833.81
2022-11-21T00:43:47.546Z,99844.75
2022-11-21T00:46:18.166Z,99828.09
2022-11-21T00:48:45.975Z,99828.44
2022-11-21T00:51:13.739Z,99824.19
2022-11-21T00:53:42.006Z,99826.88
2022-11-21T00:56:11.949Z,99824.59
2022-11-21T00:58:41.129Z,99823.38
2022-11-21T01:01:11.757Z,99823.50
2022-11-21T01:03:40.749Z,99836.28
2022-11-21T01:06:10.332Z,99827.44
2022-11-21T01:08:40.158Z,99826.53
2022-11-21T01:11:13.560Z,99823.34
2022-11-21T01:13:43.056Z,99830.06
2022-11-21T01:16:15.861Z,99819.63
2022-11-21T01:18:44.095Z,99814.25
2022-11-21T01:21:16.999Z,99815.00
2022-11-21T01:23:47.194Z,99807.22
2022-11-21T01:26:17.485Z,99805.81
2022-11-21T01:28:47.030Z,99808.31
2022-11-21T01:31:30.585Z,99805.28
2022-11-21T01:34:02.286Z,99814.53
2022-11-21T01:36:31.663Z,99820.34
2022-11-21T01:39:03.117Z,99780.69
2022-11-21T01:41:33.541Z,99809.69
2022-11-21T01:44:12.689Z,99815.31
2022-11-21T01:46:41.918Z,99815.53
2022-11-21T01:49:27.882Z,99815.19
2022-11-21T01:52:00.136Z,99816.09
2022-11-21T01:54:31.093Z,99812.38
2022-11-21T01:57:04.181Z,99816.81
2022-11-21T01:59:39.799Z,99819.25
2022-11-21T02:02:10.024Z,99820.69
2022-11-21T02:04:40.366Z,99822.63
2022-11-21T02:07:09.750Z,99822.97
2022-11-21T02:09:41.533Z,99827.31
2022-11-21T02:12:12.921Z,99815.25
2022-11-21T02:14:44.592Z,99833.59
2022-11-21T02:17:24.761Z,99836.63
2022-11-21T02:19:57.050Z,99840.31
2022-11-21T02:22:37.606Z,99838.50
2022-11-21T02:25:09.656Z,99847.59
2022-11-21T02:27:37.508Z,99853.56
2022-11-21T02:30:11.080Z,99849.34
2022-11-21T02:32:41.376Z,99852.03
2022-11-21T02:35:10.089Z,99841.31
2022-11-21T02:37:38.583Z,99843.78
2022-11-21T02:40:11.209Z,99839.19
2022-11-21T02:42:43.070Z,99836.34
2022-11-21T02:45:17.392Z,99850.66
2022-11-21T02:47:46.247Z,99847.69
2022-11-21T02:50:21.167Z,99851.28
2022-11-21T02:52:48.903Z,99852.00
2022-11-21T02:55:24.340Z,99855.38
2022-11-21T02:57:52.549Z,99857.16
2022-11-21T03:00:21.546Z,99855.88
2022-11-21T03:02:49.477Z,99854.44
2022-11-21T03:05:21.180Z,99863.41
2022-11-21T03:07:49.306Z,99864.78
2022-11-21T03:10:20.526Z,99866.34
2022-11-21T03:12:49.760Z,99865.75
2022-11-21T03:15:23.490Z,99837.53
2022-11-21T03:17:51.277Z,99870.84
2022-11-21T03:20:19.346Z,99878.16
2022-11-21T03:22:47.916Z,99849.03
2022-11-21T03:25:15.714Z,99871.22
2022-11-21T03:27:43.582Z,99876.72
2022-11-21T03:30:14.174Z,99879.88
2022-11-21T03:32:42.079Z,99872.47
2022-11-21T03:35:10.251Z,99877.41
2022-11-21T03:37:38.076Z,99876.34
2022-11-21T03:40:07.035Z,99883.06
2022-11-21T03:42:35.207Z,99883.38
2022-11-21T03:45:03.011Z,99892.50
2022-11-21T03:47:32.235Z,99894.63
2022-11-21T03:50:00.060Z,99892.41
2022-11-21T03:52:27.873Z,99908.09
2022-11-21T03:54:57.573Z,99911.78
2022-11-21T03:57:25.386Z,99915.09
2022-11-21T03:59:53.376Z,99913.94
2022-11-21T04:02:21.235Z,99875.81
2022-11-21T04:04:50.414Z,99910.19
2022-11-21T04:07:18.590Z,99909.13
2022-11-21T04:09:46.629Z,99910.72
2022-11-21T04:12:16.559Z,99912.28
2022-11-21T04:14:44.969Z,99914.06
2022-11-21T04:17:12.784Z,99911.91
2022-11-21T04:19:40.673Z,99909.13
2022-11-21T04:22:09.825Z,99920.59
2022-11-21T04:24:45.393Z,99917.41
2022-11-21T04:27:13.540Z,99918.31
2022-11-21T04:29:41.385Z,99924.34
2022-11-21T04:32:09.542Z,99921.69
2022-11-21T04:34:39.609Z,99925.72
2022-11-21T04:37:11.348Z,99919.72
2022-11-21T04:39:41.296Z,99921.28
2022-11-21T04:42:15.342Z,99908.88
2022-11-21T04:44:43.325Z,99914.78
2022-11-21T04:47:21.306Z,99917.91
2022-11-21T04:49:49.179Z,99910.50
2022-11-21T04:52:17.133Z,99915.44
2022-11-21T04:54:46.373Z,99911.72
2022-11-21T04:57:15.443Z,99874.41
2022-11-21T04:59:43.232Z,99916.09
2022-11-21T05:02:11.289Z,99910.75
2022-11-21T05:04:39.182Z,99918.25
2022-11-21T05:07:09.210Z,99874.47
2022-11-21T05:09:37.055Z,99910.84
2022-11-21T05:12:24.562Z,99920.78
2022-11-21T05:14:52.359Z,99917.78
2022-11-21T05:17:23.084Z,99924.34
2022-11-21T05:19:50.960Z,99925.91
2022-11-21T05:22:18.886Z,99924.69
2022-11-21T05:24:46.887Z,99923.31
2022-11-21T05:27:16.070Z,99924.16
2022-11-21T05:29:46.402Z,99923.25
2022-11-21T05:32:17.390Z,99926.72
2022-11-21T05:34:52.937Z,99928.44
2022-11-21T05:37:21.928Z,99935.44
2022-11-21T05:39:49.831Z,99931.53
2022-11-21T05:42:42.532Z,99919.13
2022-11-21T05:45:10.183Z,99927.19
2022-11-21T05:47:38.373Z,99922.66
2022-11-21T05:50:07.053Z,99921.25
2022-11-21T05:52:35.257Z,99919.84
2022-11-21T05:55:03.153Z,99920.06
2022-11-21T05:57:34.327Z,99924.88
2022-11-21T06:00:02.131Z,99924.19
2022-11-21T06:02:52.006Z,99921.03
2022-11-21T06:05:19.991Z,99917.09
2022-11-21T06:07:47.901Z,99926.97
2022-11-21T06:10:16.129Z,99929.72
2022-11-21T06:12:48.329Z,99933.81
2022-11-21T06:15:16.979Z,99928.44
2022-11-21T06:17:50.665Z,99926.34
2022-11-21T06:20:18.542Z,99925.75
2022-11-21T06:22:46.347Z,99934.34
2022-11-21T06:25:14.481Z,99928.56
2022-11-21T06:27:42.219Z,99927.47
2022-11-21T06:30:12.210Z,99928.13
2022-11-21T06:32:40.127Z,99908.03
2022-11-21T06:35:11.907Z,99937.09
2022-11-21T06:37:54.851Z,99915.97
2022-11-21T06:40:22.680Z,99939.72
2022-11-21T06:42:50.470Z,99942.59
2022-11-21T06:45:21.891Z,99927.06
2022-11-21T06:47:49.790Z,99933.41
2022-11-21T06:50:17.981Z,99948.41
2022-11-21T06:52:45.789Z,99944.28
2022-11-21T06:55:14.275Z,99946.72
2022-11-21T06:57:42.244Z,99948.88
2022-11-21T07:00:11.112Z,99941.53
2022-11-21T07:02:40.203Z,99949.72
2022-11-21T07:05:08.306Z,99944.34
2022-11-21T07:07:36.160Z,99954.50
2022-11-21T07:10:04.627Z,99958.41
2022-11-21T07:12:53.030Z,99961.47
2022-11-21T07:15:23.065Z,99955.00
2022-11-21T07:18:00.609Z,99964.63
2022-11-21T07:20:31.571Z,99963.69
2022-11-21T07:22:59.430Z,99953.34
2022-11-21T07:25:29.413Z,99967.84
2022-11-21T07:28:00.738Z,99975.53
2022-11-21T07:30:29.674Z,99950.31
2022-11-21T07:33:03.436Z,99971.03
2022-11-21T07:35:32.739Z,99953.97
2022-11-21T07:38:01.115Z,99962.53
2022-11-21T07:40:33.826Z,99970.00
2022-11-21T07:43:06.727Z,99951.41
2022-11-21T07:45:47.624Z,99967.34
2022-11-21T07:48:19.055Z,99960.72
2022-11-21T07:50:49.554Z,99952.41
2022-11-21T07:53:17.499Z,99958.13
2022-11-21T07:55:45.236Z,99955.06
2022-11-21T07:58:17.894Z,99946.44
2022-11-21T08:00:45.846Z,99952.59
2022-11-21T08:03:15.953Z,99961.19
2022-11-21T08:05:45.319Z,99947.47
2022-11-21T08:08:14.573Z,99964.94
2022-11-21T08:10:47.051Z,99962.59
2022-11-21T08:13:15.769Z,99966.00
2022-11-21T08:15:56.071Z,99973.09
2022-11-21T08:18:25.263Z,99969.13
2022-11-21T08:20:56.018Z,99967.22
2022-11-21T08:23:23.834Z,99961.88
2022-11-21T08:25:54.941Z,99952.44
2022-11-21T08:28:23.146Z,99970.47
2022-11-21T08:30:57.311Z,99950.03
2022-11-21T08:33:29.098Z,99969.19
2022-11-21T08:35:57.228Z,99977.69
2022-11-21T08:38:25.140Z,99975.03
2022-11-21T08:41:17.382Z,99973.25
2022-11-21T08:43:46.026Z,99969.88
2022-11-21T08:46:13.819Z,99967.81
2022-11-21T08:48:42.997Z,99969.75
2022-11-21T08:51:14.075Z,99971.22
2022-11-21T08:53:41.982Z,99968.22
2022-11-21T08:56:09.902Z,99964.88
2022-11-21T08:58:37.771Z,99969.69
2022-11-21T09:01:05.617Z,99966.03
2022-11-21T09:03:33.897Z,99973.66
2022-11-21T09:06:03.335Z,99956.25
2022-11-21T09:08:32.080Z,99968.28
2022-11-21T09:11:00.212Z,99965.81
2022-11-21T09:13:31.212Z,99968.22
2022-11-21T09:16:20.463Z,99973.59
2022-11-21T09:18:49.211Z,99976.47
2022-11-21T09:21:19.761Z,99971.19
2022-11-21T09:23:47.813Z,99960.78
2022-11-21T09:26:15.674Z,99966.28
2022-11-21T09:28:43.493Z,99952.72
2022-11-21T09:31:11.435Z,99944.94
2022-11-21T09:33:39.331Z,99949.06
2022-11-21T09:36:07.241Z,99944.88
2022-11-21T09:38:36.431Z,99943.47
2022-11-21T09:41:42.592Z,99946.69
2022-11-21T09:44:18.537Z,99952.16
2022-11-21T09:47:01.448Z,99947.78
2022-11-21T09:49:31.042Z,99942.84
2022-11-21T09:52:00.383Z,99940.38
2022-11-21T09:54:35.803Z,99940.59
2022-11-21T09:57:03.725Z,99943.09
2022-11-21T09:59:36.190Z,99941.34
2022-11-21T10:02:15.996Z,99937.47
2022-11-21T10:04:44.309Z,99946.31
2022-11-21T10:07:20.426Z,99932.50
2022-11-21T10:10:04.661Z,99938.53
2022-11-21T10:12:43.688Z,99940.09
2022-11-21T10:15:39.855Z,99944.56
2022-11-21T10:18:31.777Z,99932.19
2022-11-21T10:21:10.122Z,99935.72
2022-11-21T10:23:54.660Z,99936.41
2022-11-21T10:26:37.204Z,99941.53
2022-11-21T10:29:12.125Z,99935.22
2022-11-21T10:31:42.420Z,99933.06
2022-11-21T10:34:13.495Z,99928.28
2022-11-21T10:36:44.565Z,99916.41
2022-11-21T10:39:19.564Z,99908.63
2022-11-21T10:41:54.430Z,99918.22
2022-11-21T10:44:45.490Z,99927.41
2022-11-21T10:47:27.276Z,99921.94
2022-11-21T10:50:16.568Z,99914.31
2022-11-21T10:52:49.229Z,99917.69
2022-11-21T10:55:19.423Z,99922.13
2022-11-21T10:57:50.773Z,99900.19
2022-11-21T11:00:24.172Z,99903.19
2022-11-21T11:03:16.895Z,99895.75
2022-11-21T11:05:56.508Z,99898.78
2022-11-21T11:08:31.849Z,99906.72
2022-11-21T11:11:08.084Z,99899.28
2022-11-21T11:13:56.111Z,99892.56
2022-11-21T11:16:29.425Z,99881.59
2022-11-21T11:19:01.140Z,99883.91
2022-11-21T11:21:31.241Z,99880.88
2022-11-21T11:24:30.211Z,99870.25
2022-11-21T11:27:00.786Z,99875.38
2022-11-21T11:29:32.341Z,99864.22
2022-11-21T11:32:19.418Z,99859.59
2022-11-21T11:34:59.042Z,99855.03
2022-11-21T11:37:40.451Z,99858.41
2022-11-21T11:40:23.902Z,99860.69
2022-11-21T11:43:53.810Z,99855.38
2022-11-21T11:46:56.173Z,99845.09
2022-11-21T11:49:52.624Z,99843.69
2022-11-21T11:52:26.374Z,99832.91
2022-11-21T11:54:59.420Z,99827.25
2022-11-21T11:57:32.565Z,99786.19
2022-11-21T12:00:14.987Z,99832.00
2022-11-21T12:02:55.825Z,99823.50
2022-11-21T12:05:27.270Z,99812.13
2022-11-21T12:11:24.743Z,99799.25
2022-11-21T12:13:55.792Z,99752.34
2022-11-21T12:16:26.746Z,99777.09
2022-11-21T12:19:01.173Z,99804.03
2022-11-21T12:21:29.101Z,99794.63
2022-11-21T12:23:58.413Z,99796.94
2022-11-21T12:26:39.158Z,99790.22
2022-11-21T12:29:20.250Z,99797.28
2022-11-21T12:32:05.730Z,99782.09
2022-11-21T12:34:56.803Z,99792.19
2022-11-21T12:37:35.503Z,99783.34
2022-11-21T12:40:17.442Z,99786.72
2022-11-21T12:43:02.908Z,99789.03
2022-11-21T12:45:33.389Z,99782.09
2022-11-21T12:48:33.480Z,99777.88
2022-11-21T12:51:50.104Z,99781.75
2022-11-21T12:54:34.271Z,99774.00
2022-11-21T12:57:11.473Z,99770.44
2022-11-21T12:59:49.666Z,99762.84
2022-11-21T13:02:31.199Z,99758.22
2022-11-21T13:05:01.244Z,99758.22
2022-11-21T13:07:32.556Z,99766.19
2022-11-21T13:10:05.131Z,99747.59
2022-11-21T13:12:42.060Z,99741.75
2022-11-21T13:15:19.844Z,99750.25
2022-11-21T13:17:54.186Z,99742.13
2022-11-21T13:20:25.248Z,99743.16
2022-11-21T13:22:59.508Z,99743.53
2022-11-21T13:25:41.616Z,99744.59
2022-11-21T13:28:32.002Z,99732.91
2022-11-21T13:31:01.439Z,99729.22
2022-11-21T13:33:50.039Z,99737.16
2022-11-21T13:36:43.393Z,99726.75
2022-11-21T13:39:34.793Z,99732.22
2022-11-21T13:42:30.877Z,99686.22
2022-11-21T13:44:59.424Z,99713.25
2022-11-21T13:48:19.757Z,99714.66
2022-11-21T13:51:20.776Z,99717.66
2022-11-21T13:54:21.908Z,99721.22
2022-11-21T13:57:05.828Z,99736.28
2022-11-21T13:59:50.766Z,99712.56
2022-11-21T14:02:52.008Z,99702.34
2022-11-21T14:05:44.064Z,99717.38
2022-11-21T14:08:29.816Z,99709.94
2022-11-21T14:10:58.637Z,99707.63
2022-11-21T14:13:33.763Z,99704.78
2022-11-21T14:16:28.316Z,99697.53
2022-11-21T14:19:06.595Z,99688.50
2022-11-21T14:21:35.259Z,99688.34
2022-11-21T14:24:06.065Z,99690.81
2022-11-21T14:26:47.202Z,99598.91
2022-11-21T14:29:22.608Z,99681.59
2022-11-21T14:31:51.842Z,99686.56
2022-11-21T14:34:27.663Z,99690.81
2022-11-21T14:36:58.827Z,99685.50
2022-11-21T14:39:37.191Z,99674.53
2022-11-21T14:42:35.945Z,99674.34
2022-11-21T14:45:16.297Z,99675.94
2022-11-21T14:47:55.017Z,99670.81
2022-11-21T14:50:34.553Z,99667.44
2022-11-21T14:53:03.071Z,99665.69
2022-11-21T14:55:34.706Z,99665.88
2022-11-21T14:58:04.887Z,99664.63
2022-11-21T15:00:58.700Z,99662.69
2022-11-21T15:03:24.384Z,99645.53
2022-11-21T15:06:06.895Z,99652.06
2022-11-21T15:11:31.073Z,99629.66
2022-11-21T15:14:15.638Z,99630.00
2022-11-21T15:16:47.603Z,99611.28
2022-11-21T15:19:25.838Z,99626.81
2022-11-21T15:22:01.909Z,99623.28
2022-11-21T15:24:40.366Z,99605.25
2022-11-21T15:27:31.434Z,99614.66
2022-11-21T15:30:04.077Z,99597.34
2022-11-21T15:32:33.558Z,99598.19
2022-11-21T15:35:21.601Z,99600.34
2022-11-21T15:37:52.657Z,99595.22
2022-11-21T15:40:21.386Z,99595.00
2022-11-21T15:42:52.139Z,99589.56
2022-11-21T15:45:26.761Z,99588.13
2022-11-21T15:47:56.794Z,99587.09
2022-11-21T15:50:26.173Z,99582.28
2022-11-21T15:52:54.739Z,99579.31
2022-11-21T15:55:25.940Z,99586.19
2022-11-21T15:57:53.814Z,99584.06
2022-11-21T16:00:21.787Z,99585.84
2022-11-21T16:02:49.815Z,99581.25
2022-11-21T16:05:19.112Z,99543.44
2022-11-21T16:07:48.601Z,99575.78
2022-11-21T16:10:24.305Z,99547.53
2022-11-21T16:12:58.415Z,99582.50
2022-11-21T16:15:26.513Z,99569.75
2022-11-21T16:17:55.463Z,99575.44
2022-11-21T16:20:24.669Z,99579.13
2022-11-21T16:22:53.200Z,99581.25
2022-11-21T16:25:21.620Z,99572.25
2022-11-21T16:27:49.822Z,99573.66
2022-11-21T16:30:18.041Z,99571.03
2022-11-21T16:32:48.424Z,99567.63
2022-11-21T16:35:19.118Z,99558.44
2022-11-21T16:37:48.501Z,99565.31
2022-11-21T16:40:19.469Z,99561.78
2022-11-21T16:42:47.297Z,99560.69
2022-11-21T16:45:15.672Z,99559.47
2022-11-21T16:47:48.610Z,99560.69
2022-11-21T16:50:18.800Z,99554.31
2022-11-21T16:52:49.557Z,99549.38
2022-11-21T16:55:18.029Z,99532.03
2022-11-21T16:57:45.968Z,99525.66
2022-11-21T17:00:14.501Z,99524.94
2022-11-21T17:02:45.101Z,99524.06
2022-11-21T17:05:14.902Z,99517.19
2022-11-21T17:07:43.474Z,99513.81
2022-11-21T17:10:16.732Z,99509.97
2022-11-21T17:12:45.230Z,99507.28
2022-11-21T17:15:15.666Z,99509.25
2022-11-21T17:17:47.010Z,99498.84
2022-11-21T17:20:14.854Z,99487.94
2022-11-21T17:22:42.694Z,99487.63
2022-11-21T17:25:11.101Z,99485.47
2022-11-21T17:27:40.213Z,99476.66
2022-11-21T17:30:10.745Z,99471.19
2022-11-21T17:32:39.377Z,99471.91
2022-11-21T17:35:08.527Z,99459.38
2022-11-21T17:37:36.420Z,99469.63
2022-11-21T17:40:06.620Z,99455.69
2022-11-21T17:42:34.520Z,99441.19
2022-11-21T17:45:03.679Z,99443.31
2022-11-21T17:47:33.819Z,99439.78
2022-11-21T17:50:06.071Z,99448.81
2022-11-21T17:52:34.314Z,99437.84
2022-11-21T17:55:02.429Z,99437.13
2022-11-21T17:57:30.322Z,99421.06
2022-11-21T18:00:00.358Z,99407.09
2022-11-21T18:02:29.751Z,99415.03
2022-11-21T18:05:00.569Z,99417.72
2022-11-21T18:07:29.893Z,99411.00
2022-11-21T18:10:14.335Z,99406.03
2022-11-21T18:12:45.867Z,99401.13
2022-11-21T18:15:13.709Z,99406.41
2022-11-21T18:17:48.015Z,99400.78
2022-11-21T18:20:16.036Z,99407.13
2022-11-21T18:22:45.614Z,99392.13
2022-11-21T18:25:13.517Z,99387.00
2022-11-21T18:27:41.474Z,99382.38
2022-11-21T18:30:10.392Z,99369.81
2022-11-21T18:32:38.654Z,99374.94
2022-11-21T18:35:11.374Z,99375.84
2022-11-21T18:37:40.593Z,99372.50
2022-11-21T18:40:10.852Z,99373.00
2022-11-21T18:42:38.732Z,99367.00
2022-11-21T18:45:08.255Z,99356.97
2022-11-21T18:47:36.154Z,99366.16
2022-11-21T18:50:04.107Z,99352.38
2022-11-21T18:52:34.472Z,99358.34
2022-11-21T18:55:03.572Z,99347.38
2022-11-21T18:57:32.388Z,99329.50
2022-11-21T19:00:05.881Z,99337.72
2022-11-21T19:02:33.789Z,99332.72
2022-11-21T19:05:01.823Z,99339.25
2022-11-21T19:07:29.825Z,99328.97
2022-11-21T19:10:20.783Z,99335.63
2022-11-21T19:12:47.011Z,99334.88
2022-11-21T19:15:15.033Z,99325.13
2022-11-21T19:17:42.927Z,99314.09
2022-11-21T19:20:12.005Z,99288.84
2022-11-21T19:22:39.996Z,99296.41
2022-11-21T19:25:10.110Z,99287.56
2022-11-21T19:27:38.105Z,99289.03
2022-11-21T19:30:13.414Z,99283.06
2022-11-21T19:32:41.328Z,99295.16
2022-11-21T19:35:10.127Z,99301.19
2022-11-21T19:37:40.696Z,99306.72
2022-11-21T19:40:11.660Z,99307.91
2022-11-21T19:42:39.641Z,99301.53
2022-11-21T19:45:08.677Z,99293.56
2022-11-21T19:47:39.741Z,99291.06
2022-11-21T19:50:08.660Z,99291.00
2022-11-21T19:52:36.608Z,99300.69
2022-11-21T19:55:05.004Z,99312.69
2022-11-21T19:57:37.391Z,99301.56
2022-11-21T20:00:07.003Z,99322.69
2022-11-21T20:02:37.707Z,99331.75
2022-11-21T20:05:06.204Z,99318.00
2022-11-21T20:07:34.471Z,99350.75
2022-11-21T20:10:06.053Z,99358.38
2022-11-21T20:12:35.542Z,99355.34
2022-11-21T20:15:03.502Z,99349.69
2022-11-21T20:17:31.368Z,99342.56
2022-11-21T20:19:59.980Z,99305.84
2022-11-21T20:22:30.091Z,99323.09
2022-11-21T20:25:01.112Z,99322.59
2022-11-21T20:27:28.970Z,99323.31
2022-11-21T20:30:06.821Z,99324.19
2022-11-21T20:32:35.148Z,99327.56
2022-11-21T20:35:03.076Z,99315.00
2022-11-21T20:37:33.610Z,99321.72
2022-11-21T20:40:09.431Z,99300.97
2022-11-21T20:42:37.592Z,99314.34
2022-11-21T20:46:07.200Z,99317.19
2022-11-21T20:47:58.511Z,99310.53
2022-11-21T20:51:18.071Z,99316.75
2022-11-21T20:53:50.859Z,99310.91
2022-11-21T20:56:03.812Z,99308.44
2022-11-21T20:58:32.254Z,99286.81
2022-11-21T21:01:04.925Z,99296.47
2022-11-21T21:03:34.907Z,99300.06
2022-11-21T21:06:07.178Z,99305.13
2022-11-21T21:08:36.075Z,99309.91
2022-11-21T21:11:30.693Z,99293.75
2022-11-21T21:14:00.684Z,99329.94
2022-11-21T21:16:30.384Z,99318.50
2022-11-21T21:18:58.215Z,99315.50
2022-11-21T21:21:28.996Z,99316.41
2022-11-21T21:24:17.606Z,99314.31
2022-11-21T21:26:48.070Z,99305.69
2022-11-21T21:29:19.000Z,99256.72
2022-11-21T21:31:52.811Z,99300.94
2022-11-21T21:34:21.986Z,99306.78
2022-11-21T21:36:53.315Z,99295.66
2022-11-21T21:39:21.255Z,99285.25
2022-11-21T21:41:49.342Z,99298.50
2022-11-21T21:44:19.974Z,99284.34
2022-11-21T21:46:49.297Z,99290.72
2022-11-21T21:49:17.250Z,99293.13
2022-11-21T21:51:45.149Z,99294.50
2022-11-21T21:54:23.523Z,99278.97
2022-11-21T21:56:52.471Z,99275.44
2022-11-21T21:59:20.359Z,99284.25
2022-11-21T22:01:49.652Z,99277.88
2022-11-21T22:04:27.005Z,99271.66
2022-11-21T22:06:55.063Z,99272.91
2022-11-21T22:09:24.336Z,99265.78
2022-11-21T22:11:54.186Z,99261.72
2022-11-21T22:14:22.193Z,99261.34
2022-11-21T22:16:51.951Z,99257.09
2022-11-21T22:19:21.281Z,99248.09
2022-11-21T22:21:49.103Z,99248.09
2022-11-21T22:24:25.341Z,99242.41
2022-11-21T22:26:54.586Z,99244.88
2022-11-21T22:29:22.627Z,99235.88
2022-11-21T22:31:59.591Z,99230.22
2022-11-21T22:34:40.034Z,99232.13
2022-11-21T22:37:08.387Z,99226.13
2022-11-21T22:39:36.220Z,99225.97
2022-11-21T22:42:06.733Z,99217.84
2022-11-21T22:44:34.810Z,99212.69
2022-11-21T22:47:06.366Z,99212.88
2022-11-21T22:49:34.281Z,99197.53
2022-11-21T22:52:09.453Z,99201.94
2022-11-21T22:54:37.403Z,99191.31
2022-11-21T22:57:05.264Z,99174.34
2022-11-21T22:59:33.646Z,99187.25
2022-11-21T23:02:08.181Z,99186.69
2022-11-21T23:04:36.120Z,99186.69
2022-11-21T23:07:04.168Z,99179.97
2022-11-21T23:09:33.301Z,99149.41
2022-11-21T23:12:02.286Z,99174.72
2022-11-21T23:14:30.583Z,99154.13
2022-11-21T23:16:58.536Z,99159.44
2022-11-21T23:19:28.148Z,99185.47
2022-11-21T23:21:56.105Z,99180.50
2022-11-21T23:24:24.145Z,99187.78
2022-11-21T23:26:55.437Z,99191.16
2022-11-21T23:29:23.299Z,99189.56
2022-11-21T23:31:52.470Z,99193.09
2022-11-21T23:34:20.544Z,99191.47
2022-11-21T23:36:49.666Z,99185.44
2022-11-21T23:39:17.733Z,99181.69
2022-11-21T23:41:45.708Z,99181.69
2022-11-21T23:44:17.353Z,99176.56
2022-11-21T23:46:53.460Z,99178.00
2022-11-21T23:49:21.260Z,99167.06
2022-11-21T23:51:56.431Z,99163.53
2022-11-21T23:54:24.299Z,99156.09
2022-11-21T23:56:55.230Z,99159.28
2022-11-21T23:59:23.170Z,99152.91
